createdAt,value
2017-10-02T00:00:42.318Z,7.74
2017-10-02T00:03:08.561Z,7.57
2017-10-02T00:05:34.806Z,7.68
2017-10-02T00:08:01.240Z,7.68
2017-10-02T00:10:27.481Z,7.65
2017-10-02T00:12:53.751Z,7.67
2017-10-02T00:15:19.988Z,7.68
2017-10-02T00:17:46.360Z,7.74
2017-10-02T00:20:12.635Z,7.79
2017-10-02T00:22:38.885Z,7.69
2017-10-02T00:25:05.113Z,7.75
2017-10-02T00:27:31.487Z,7.79
2017-10-02T00:29:57.735Z,7.82
2017-10-02T00:32:23.966Z,7.76
2017-10-02T00:34:50.232Z,7.74
2017-10-02T00:37:16.496Z,7.71
2017-10-02T00:39:42.760Z,7.64
2017-10-02T00:42:09.013Z,7.63
2017-10-02T00:44:35.261Z,7.62
2017-10-02T00:47:01.508Z,7.58
2017-10-02T00:49:27.781Z,7.55
2017-10-02T00:51:54.008Z,7.50
2017-10-02T00:54:20.244Z,7.50
2017-10-02T00:56:46.492Z,7.50
2017-10-02T00:59:12.866Z,7.51
2017-10-02T01:01:39.109Z,7.57
2017-10-02T01:04:05.349Z,7.63
2017-10-02T01:06:31.585Z,7.65
2017-10-02T01:08:57.826Z,7.60
2017-10-02T01:11:24.062Z,7.65
2017-10-02T01:13:50.441Z,7.68
2017-10-02T01:16:16.674Z,7.64
2017-10-02T01:18:42.911Z,7.70
2017-10-02T01:21:09.308Z,7.61
2017-10-02T01:23:35.536Z,7.72
2017-10-02T01:26:01.776Z,7.64
2017-10-02T01:28:28.019Z,7.62
2017-10-02T01:30:54.262Z,7.63
2017-10-02T01:33:20.494Z,7.53
2017-10-02T01:35:46.740Z,7.41
2017-10-02T01:38:12.988Z,7.33
2017-10-02T01:40:39.218Z,7.30
2017-10-02T01:43:05.448Z,7.35
2017-10-02T01:45:31.686Z,7.36
2017-10-02T01:47:57.926Z,7.32
2017-10-02T01:50:24.174Z,7.30
2017-10-02T01:52:50.439Z,7.37
2017-10-02T01:55:16.664Z,7.40
2017-10-02T01:57:42.907Z,7.39
2017-10-02T02:00:09.206Z,7.37
2017-10-02T02:02:35.437Z,7.40
2017-10-02T02:05:01.660Z,7.50
2017-10-02T02:07:27.918Z,7.47
2017-10-02T02:09:54.147Z,7.43
2017-10-02T02:12:20.368Z,7.41
2017-10-02T02:14:46.636Z,7.49
2017-10-02T02:17:12.857Z,7.46
2017-10-02T02:19:39.089Z,7.38
2017-10-02T02:22:05.362Z,7.41
2017-10-02T02:24:31.597Z,7.46
2017-10-02T02:26:57.852Z,7.49
2017-10-02T02:29:24.128Z,7.54
2017-10-02T02:31:50.357Z,7.41
2017-10-02T02:34:16.595Z,7.49
2017-10-02T02:36:42.897Z,7.53
2017-10-02T02:39:09.133Z,7.55
2017-10-02T02:41:35.349Z,7.60
2017-10-02T02:44:01.628Z,7.66
2017-10-02T02:46:27.862Z,7.67
2017-10-02T02:48:54.088Z,7.65
2017-10-02T02:51:20.405Z,7.69
2017-10-02T02:53:46.629Z,7.71
2017-10-02T02:56:12.865Z,7.74
2017-10-02T02:58:39.144Z,7.83
2017-10-02T03:01:05.372Z,7.80
2017-10-02T03:03:31.592Z,7.65
2017-10-02T03:05:57.983Z,7.60
2017-10-02T03:08:24.222Z,7.66
2017-10-02T03:10:50.449Z,7.62
2017-10-02T03:13:16.717Z,7.53
2017-10-02T03:15:42.945Z,7.29
2017-10-02T03:18:09.299Z,7.13
2017-10-02T03:20:35.567Z,6.95
2017-10-02T03:23:01.787Z,6.87
2017-10-02T03:25:28.026Z,6.95
2017-10-02T03:27:54.297Z,6.96
2017-10-02T03:30:20.534Z,6.94
2017-10-02T03:32:46.753Z,6.79
2017-10-02T03:35:13.041Z,6.87
2017-10-02T03:37:39.276Z,6.80
2017-10-02T03:40:05.511Z,6.98
2017-10-02T03:42:32.009Z,7.07
2017-10-02T03:44:58.220Z,7.10
2017-10-02T03:47:24.433Z,7.13
2017-10-02T03:49:50.683Z,7.11
2017-10-02T03:52:16.968Z,7.03
2017-10-02T03:54:43.208Z,6.98
2017-10-02T03:57:09.471Z,6.89
2017-10-02T03:59:35.698Z,6.78
2017-10-02T04:02:01.931Z,6.61
2017-10-02T04:04:28.207Z,6.67
2017-10-02T04:06:54.442Z,6.53
2017-10-02T04:09:20.680Z,6.58
2017-10-02T04:11:46.950Z,6.58
2017-10-02T04:14:13.180Z,6.54
2017-10-02T04:16:39.447Z,6.52
2017-10-02T04:19:05.728Z,6.53
2017-10-02T04:21:31.955Z,6.47
2017-10-02T04:23:58.188Z,6.55
2017-10-02T04:26:24.555Z,6.55
2017-10-02T04:28:50.792Z,6.51
2017-10-02T04:31:17.033Z,6.40
2017-10-02T04:33:43.317Z,6.39
2017-10-02T04:36:09.550Z,6.41
2017-10-02T04:38:35.788Z,6.46
2017-10-02T04:41:02.063Z,6.43
2017-10-02T04:43:28.288Z,6.32
2017-10-02T04:45:54.524Z,6.25
2017-10-02T04:48:20.849Z,6.28
2017-10-02T04:50:47.106Z,6.31
2017-10-02T04:53:13.329Z,6.36
2017-10-02T04:55:39.610Z,6.38
2017-10-02T04:58:05.931Z,6.40
2017-10-02T05:00:32.164Z,6.43
2017-10-02T05:02:58.429Z,6.45
2017-10-02T05:05:24.666Z,6.49
2017-10-02T05:07:50.892Z,6.57
2017-10-02T05:10:17.279Z,6.64
2017-10-02T05:12:43.522Z,6.80
2017-10-02T05:15:09.759Z,6.90
2017-10-02T05:17:36.042Z,7.01
2017-10-02T05:20:02.271Z,7.11
2017-10-02T05:22:28.537Z,7.19
2017-10-02T05:24:54.884Z,7.15
2017-10-02T05:27:21.136Z,7.23
2017-10-02T05:29:47.359Z,7.36
2017-10-02T05:32:13.615Z,7.38
2017-10-02T05:34:39.858Z,7.43
2017-10-02T05:37:06.107Z,7.42
2017-10-02T05:39:32.437Z,7.46
2017-10-02T05:41:58.662Z,7.46
2017-10-02T05:44:25.043Z,7.40
2017-10-02T05:46:51.339Z,7.46
2017-10-02T05:49:17.589Z,7.56
2017-10-02T05:51:43.833Z,7.48
2017-10-02T05:54:10.112Z,7.44
2017-10-02T05:56:36.344Z,7.53
2017-10-02T05:59:02.572Z,7.56
2017-10-02T06:01:28.869Z,7.51
2017-10-02T06:03:55.130Z,7.49
2017-10-02T06:06:21.357Z,7.51
2017-10-02T06:08:47.622Z,7.53
2017-10-02T06:11:13.846Z,7.77
2017-10-02T06:13:40.065Z,7.94
2017-10-02T06:16:06.336Z,8.18
2017-10-02T06:18:32.677Z,8.19
2017-10-02T06:20:58.915Z,8.27
2017-10-02T06:23:25.190Z,8.44
2017-10-02T06:25:51.406Z,8.69
2017-10-02T06:28:17.624Z,8.76
2017-10-02T06:30:43.896Z,9.00
2017-10-02T06:33:10.122Z,9.30
2017-10-02T06:35:36.332Z,9.56
2017-10-02T06:38:02.605Z,9.61
2017-10-02T06:40:28.840Z,10.28
2017-10-02T06:42:55.187Z,11.21
2017-10-02T06:45:21.452Z,11.97
2017-10-02T06:47:47.687Z,12.43
2017-10-02T06:50:13.910Z,12.42
2017-10-02T06:52:40.200Z,12.24
2017-10-02T06:55:06.433Z,12.81
2017-10-02T06:57:32.661Z,13.04
2017-10-02T06:59:58.918Z,13.62
2017-10-02T07:02:25.139Z,13.90
2017-10-02T07:04:51.460Z,14.30
2017-10-02T07:07:17.718Z,14.86
2017-10-02T07:09:43.956Z,15.59
2017-10-02T07:12:10.176Z,15.51
2017-10-02T07:14:36.440Z,16.63
2017-10-02T07:17:02.680Z,17.06
2017-10-02T07:19:28.976Z,17.30
2017-10-02T07:21:55.271Z,18.00
2017-10-02T07:24:21.496Z,17.63
2017-10-02T07:26:47.739Z,17.34
2017-10-02T07:29:14.012Z,17.40
2017-10-02T07:31:40.242Z,18.01
2017-10-02T07:34:06.481Z,18.55
2017-10-02T07:36:32.762Z,19.84
2017-10-02T07:38:58.988Z,20.80
2017-10-02T07:41:25.280Z,21.23
2017-10-02T07:43:51.552Z,21.43
2017-10-02T07:46:17.778Z,21.59
2017-10-02T07:48:44.006Z,21.46
2017-10-02T07:51:10.258Z,21.53
2017-10-02T07:53:36.491Z,21.27
2017-10-02T07:56:02.722Z,21.50
2017-10-02T07:58:29.016Z,21.08
2017-10-02T08:00:55.272Z,21.43
2017-10-02T08:03:21.490Z,21.82
2017-10-02T08:05:47.750Z,21.68
2017-10-02T08:08:13.977Z,21.98
2017-10-02T08:10:40.208Z,21.79
2017-10-02T08:13:06.478Z,22.24
2017-10-02T08:15:32.740Z,22.95
2017-10-02T08:17:58.968Z,22.99
2017-10-02T08:20:25.228Z,22.61
2017-10-02T08:22:51.463Z,23.41
2017-10-02T08:25:17.714Z,24.41
2017-10-02T08:27:43.991Z,24.79
2017-10-02T08:30:10.224Z,24.98
2017-10-02T08:32:36.442Z,24.29
2017-10-02T08:35:02.707Z,24.46
2017-10-02T08:37:28.972Z,24.66
2017-10-02T08:39:55.210Z,25.45
2017-10-02T08:42:21.395Z,24.97
2017-10-02T08:44:47.574Z,24.85
2017-10-02T08:47:13.750Z,24.78
2017-10-02T08:49:39.921Z,25.00
2017-10-02T08:52:06.108Z,23.95
2017-10-02T08:54:32.289Z,24.14
2017-10-02T08:56:58.488Z,24.18
2017-10-02T08:59:24.663Z,24.66
2017-10-02T09:01:50.833Z,25.24
2017-10-02T09:04:17.019Z,24.97
2017-10-02T09:06:43.208Z,25.37
2017-10-02T09:09:09.403Z,25.52
2017-10-02T09:11:35.713Z,24.85
2017-10-02T09:14:01.891Z,24.59
2017-10-02T09:16:28.084Z,24.60
2017-10-02T09:18:54.293Z,25.19
2017-10-02T09:21:20.617Z,24.54
2017-10-02T09:23:46.809Z,24.44
2017-10-02T09:26:13.038Z,24.56
2017-10-02T09:28:39.226Z,25.07
2017-10-02T09:31:05.397Z,25.11
2017-10-02T09:33:31.627Z,26.55
2017-10-02T09:35:57.807Z,26.77
2017-10-02T09:38:23.979Z,26.70
2017-10-02T09:40:50.252Z,27.23
2017-10-02T09:43:16.422Z,27.08
2017-10-02T09:45:42.598Z,26.25
2017-10-02T09:48:08.813Z,27.08
2017-10-02T09:50:35.001Z,27.68
2017-10-02T09:53:01.185Z,26.79
2017-10-02T09:55:27.409Z,25.77
2017-10-02T09:57:53.592Z,25.61
2017-10-02T10:00:19.771Z,24.90
2017-10-02T10:02:45.993Z,24.91
2017-10-02T10:05:12.170Z,25.32
2017-10-02T10:07:38.343Z,25.21
2017-10-02T10:10:04.564Z,25.83
2017-10-02T10:12:30.729Z,25.75
2017-10-02T10:14:56.902Z,26.15
2017-10-02T10:17:23.106Z,26.54
2017-10-02T10:19:49.267Z,26.28
2017-10-02T10:22:15.438Z,26.28
2017-10-02T10:24:41.641Z,26.99
2017-10-02T10:27:07.812Z,26.13
2017-10-02T10:29:33.992Z,26.43
2017-10-02T10:32:00.269Z,25.70
2017-10-02T10:34:26.452Z,26.21
2017-10-02T10:36:52.614Z,26.17
2017-10-02T10:39:18.832Z,26.16
2017-10-02T10:41:45.015Z,26.08
2017-10-02T10:44:11.210Z,26.65
2017-10-02T10:46:37.426Z,26.59
2017-10-02T10:49:04.147Z,26.37
2017-10-02T10:51:30.318Z,27.17
2017-10-02T10:53:56.538Z,26.41
2017-10-02T10:56:22.702Z,26.80
2017-10-02T10:58:48.877Z,28.54
2017-10-02T11:01:15.078Z,28.42
2017-10-02T11:03:41.252Z,28.48
2017-10-02T11:06:07.437Z,28.39
2017-10-02T11:08:33.642Z,26.31
2017-10-02T11:10:59.829Z,26.31
2017-10-02T11:13:26.002Z,26.34
2017-10-02T11:15:52.376Z,26.83
2017-10-02T11:18:18.557Z,27.22
2017-10-02T11:20:44.739Z,27.74
2017-10-02T11:23:10.960Z,27.92
2017-10-02T11:25:37.138Z,28.07
2017-10-02T11:28:03.332Z,27.91
2017-10-02T11:30:29.565Z,28.42
2017-10-02T11:32:55.737Z,28.30
2017-10-02T11:35:22.010Z,28.04
2017-10-02T11:37:48.205Z,27.55
2017-10-02T11:40:14.394Z,27.88
2017-10-02T11:42:40.580Z,27.48
2017-10-02T11:45:06.806Z,28.22
2017-10-02T11:47:32.979Z,27.74
2017-10-02T11:49:59.165Z,28.31
2017-10-02T11:52:25.382Z,28.66
2017-10-02T11:54:51.558Z,28.00
2017-10-02T11:57:17.726Z,27.37
2017-10-02T11:59:43.939Z,28.13
2017-10-02T12:02:10.128Z,28.46
2017-10-02T12:04:36.321Z,28.64
2017-10-02T12:07:02.526Z,28.96
2017-10-02T12:09:28.720Z,28.35
2017-10-02T12:11:55.024Z,27.38
2017-10-02T12:14:21.230Z,27.19
2017-10-02T12:16:47.416Z,26.51
2017-10-02T12:19:13.586Z,27.11
2017-10-02T12:21:40.137Z,25.41
2017-10-02T12:24:06.332Z,26.67
2017-10-02T12:26:32.515Z,27.45
2017-10-02T12:28:58.817Z,27.99
2017-10-02T12:31:24.998Z,25.05
2017-10-02T12:33:51.180Z,25.70
2017-10-02T12:36:17.415Z,26.27
2017-10-02T12:38:43.608Z,27.62
2017-10-02T12:41:09.965Z,28.35
2017-10-02T12:43:36.207Z,29.38
2017-10-02T12:46:02.421Z,29.26
2017-10-02T12:48:28.591Z,29.94
2017-10-02T12:50:54.812Z,29.36
2017-10-02T12:53:20.987Z,28.88
2017-10-02T12:55:47.170Z,29.03
2017-10-02T12:58:13.401Z,29.10
2017-10-02T13:00:39.683Z,29.27
2017-10-02T13:03:05.868Z,27.90
2017-10-02T13:05:32.072Z,28.21
2017-10-02T13:07:58.242Z,27.82
2017-10-02T13:10:24.619Z,26.37
2017-10-02T13:12:50.852Z,27.38
2017-10-02T13:15:17.045Z,27.55
2017-10-02T13:17:43.243Z,27.19
2017-10-02T13:20:09.511Z,25.46
2017-10-02T13:22:35.695Z,26.05
2017-10-02T13:25:01.862Z,26.33
2017-10-02T13:27:28.070Z,25.93
2017-10-02T13:29:54.385Z,23.65
2017-10-02T13:32:20.553Z,23.72
2017-10-02T13:34:46.771Z,22.90
2017-10-02T13:37:12.942Z,21.95
2017-10-02T13:39:39.106Z,21.40
2017-10-02T13:42:05.373Z,21.13
2017-10-02T13:44:31.539Z,20.76
2017-10-02T13:46:57.828Z,20.49
2017-10-02T13:49:24.069Z,20.27
2017-10-02T13:51:50.279Z,20.20
2017-10-02T13:54:16.472Z,20.12
2017-10-02T13:56:42.715Z,19.89
2017-10-02T13:59:08.884Z,19.72
2017-10-02T14:01:35.069Z,19.57
2017-10-02T14:04:01.299Z,19.44
2017-10-02T14:06:27.700Z,19.36
2017-10-02T14:08:54.060Z,19.17
2017-10-02T14:11:20.295Z,18.97
2017-10-02T14:13:46.473Z,18.84
2017-10-02T14:16:12.782Z,18.64
2017-10-02T14:18:39.012Z,18.59
2017-10-02T14:21:05.190Z,18.52
2017-10-02T14:23:31.363Z,18.44
2017-10-02T14:25:57.573Z,18.36
2017-10-02T14:28:23.938Z,18.27
2017-10-02T14:30:50.114Z,18.16
2017-10-02T14:33:16.337Z,18.07
2017-10-02T14:35:42.527Z,17.99
2017-10-02T14:38:08.737Z,17.97
2017-10-02T14:40:35.064Z,17.91
2017-10-02T14:43:01.243Z,17.84
2017-10-02T14:45:27.419Z,17.80
2017-10-02T14:47:53.614Z,17.70
2017-10-02T14:50:19.784Z,17.65
2017-10-02T14:52:45.966Z,17.61
2017-10-02T14:55:12.219Z,17.56
2017-10-02T14:57:38.396Z,17.53
2017-10-02T15:00:04.991Z,17.53
2017-10-02T15:02:31.239Z,17.45
2017-10-02T15:04:57.408Z,17.40
2017-10-02T15:07:23.698Z,17.33
2017-10-02T15:09:49.905Z,17.19
2017-10-02T15:12:16.077Z,17.06
2017-10-02T15:14:42.260Z,16.98
2017-10-02T15:17:08.490Z,16.76
2017-10-02T15:19:34.648Z,16.64
2017-10-02T15:22:00.816Z,16.49
2017-10-02T15:24:27.037Z,16.34
2017-10-02T15:26:53.208Z,16.27
2017-10-02T15:29:19.406Z,16.06
2017-10-02T15:31:45.614Z,15.85
2017-10-02T15:34:11.809Z,15.60
2017-10-02T15:36:38.032Z,15.42
2017-10-02T15:39:04.240Z,15.22
2017-10-02T15:41:30.419Z,14.96
2017-10-02T15:43:56.647Z,14.74
2017-10-02T15:46:22.870Z,14.67
2017-10-02T15:48:49.045Z,14.39
2017-10-02T15:51:15.213Z,14.20
2017-10-02T15:53:41.424Z,14.10
2017-10-02T15:56:07.590Z,13.97
2017-10-02T15:58:33.770Z,13.90
2017-10-02T16:01:00.013Z,13.81
2017-10-02T16:03:26.196Z,13.69
2017-10-02T16:05:52.374Z,13.51
2017-10-02T16:08:18.592Z,13.43
2017-10-02T16:10:44.765Z,13.28
2017-10-02T16:13:10.956Z,13.16
2017-10-02T16:15:37.179Z,12.93
2017-10-02T16:18:03.350Z,12.80
2017-10-02T16:20:29.521Z,12.59
2017-10-02T16:22:55.742Z,12.50
2017-10-02T16:25:21.928Z,12.35
2017-10-02T16:27:48.116Z,12.24
2017-10-02T16:30:14.323Z,12.14
2017-10-02T16:32:40.494Z,12.02
2017-10-02T16:35:06.673Z,11.93
2017-10-02T16:37:32.885Z,11.84
2017-10-02T16:39:59.061Z,11.78
2017-10-02T16:42:25.222Z,11.73
2017-10-02T16:44:51.423Z,11.68
2017-10-02T16:47:17.596Z,11.55
2017-10-02T16:49:43.769Z,11.52
2017-10-02T16:52:09.997Z,11.38
2017-10-02T16:54:36.180Z,11.20
2017-10-02T16:57:02.396Z,11.16
2017-10-02T16:59:28.596Z,11.15
2017-10-02T17:01:54.763Z,11.09
2017-10-02T17:04:20.930Z,10.98
2017-10-02T17:06:47.156Z,10.89
2017-10-02T17:09:13.364Z,10.90
2017-10-02T17:11:39.585Z,10.89
2017-10-02T17:14:05.819Z,10.84
2017-10-02T17:16:32.123Z,10.72
2017-10-02T17:18:58.291Z,10.65
2017-10-02T17:21:24.508Z,10.58
2017-10-02T17:23:50.679Z,10.50
2017-10-02T17:26:16.929Z,10.44
2017-10-02T17:28:43.321Z,10.31
2017-10-02T17:31:09.482Z,10.20
2017-10-02T17:33:35.660Z,10.17
2017-10-02T17:36:01.857Z,10.09
2017-10-02T17:38:28.036Z,9.99
2017-10-02T17:40:54.226Z,10.03
2017-10-02T17:45:52.991Z,9.96
2017-10-02T17:48:19.194Z,9.92
2017-10-02T17:50:45.373Z,9.89
2017-10-02T17:53:11.546Z,9.92
2017-10-02T17:55:37.772Z,9.94
2017-10-02T17:58:03.953Z,9.82
2017-10-02T18:00:30.118Z,9.79
2017-10-02T18:02:56.366Z,9.72
2017-10-02T18:05:22.552Z,9.66
2017-10-02T18:07:48.746Z,9.60
2017-10-02T18:10:15.044Z,9.65
2017-10-02T18:12:41.227Z,9.52
2017-10-02T18:15:07.535Z,9.52
2017-10-02T18:17:33.742Z,9.45
2017-10-02T18:19:59.911Z,9.47
2017-10-02T18:22:26.089Z,9.40
2017-10-02T18:24:52.302Z,9.44
2017-10-02T18:27:18.503Z,9.40
2017-10-02T18:29:44.679Z,9.38
2017-10-02T18:32:10.887Z,9.30
2017-10-02T18:34:37.047Z,9.25
2017-10-02T18:37:03.243Z,9.17
2017-10-02T18:39:29.491Z,9.12
2017-10-02T18:41:55.675Z,9.12
2017-10-02T18:44:22.666Z,9.09
2017-10-02T18:46:48.872Z,8.98
2017-10-02T18:49:15.233Z,8.91
2017-10-02T18:51:41.446Z,8.84
2017-10-02T18:54:10.563Z,8.86
2017-10-02T18:56:36.860Z,8.81
2017-10-02T18:59:04.021Z,8.75
2017-10-02T19:01:30.224Z,8.68
2017-10-02T19:03:56.422Z,8.63
2017-10-02T19:06:22.715Z,8.63
2017-10-02T19:08:48.904Z,8.57
2017-10-02T19:13:50.098Z,8.55
2017-10-02T19:16:16.268Z,8.55
2017-10-02T19:18:42.457Z,8.51
2017-10-02T19:21:08.643Z,8.46
2017-10-02T19:23:35.034Z,8.40
2017-10-02T19:26:01.239Z,8.38
2017-10-02T19:28:27.473Z,8.60
2017-10-02T19:30:53.650Z,8.82
2017-10-02T19:33:19.855Z,8.98
2017-10-02T19:35:46.056Z,8.88
2017-10-02T19:38:12.247Z,8.71
2017-10-02T19:40:38.490Z,8.60
2017-10-02T19:43:04.652Z,8.58
2017-10-02T19:45:30.832Z,8.49
2017-10-02T19:47:57.112Z,8.54
2017-10-02T19:50:23.350Z,8.73
2017-10-02T19:52:49.520Z,8.78
2017-10-02T19:55:15.747Z,9.01
2017-10-02T19:57:41.941Z,8.90
2017-10-02T20:00:08.122Z,8.64
2017-10-02T20:02:34.489Z,8.51
2017-10-02T20:05:00.697Z,8.51
2017-10-02T20:07:26.918Z,8.37
2017-10-02T20:09:53.131Z,8.44
2017-10-02T20:12:19.311Z,8.39
2017-10-02T20:14:45.489Z,8.19
2017-10-02T20:17:11.680Z,8.29
2017-10-02T20:19:37.875Z,8.42
2017-10-02T20:22:04.227Z,8.23
2017-10-02T20:24:30.420Z,8.11
2017-10-02T20:26:57.354Z,8.17
2017-10-02T20:29:23.593Z,8.35
2017-10-02T20:31:49.962Z,8.27
2017-10-02T20:34:16.150Z,8.28
2017-10-02T20:36:43.496Z,8.14
2017-10-02T20:39:09.670Z,8.08
2017-10-02T20:41:35.843Z,8.01
2017-10-02T20:44:02.037Z,8.05
2017-10-02T20:46:28.274Z,8.23
2017-10-02T20:48:54.449Z,8.30
2017-10-02T20:51:20.675Z,8.20
2017-10-02T20:53:53.460Z,8.06
2017-10-02T20:56:19.636Z,8.00
2017-10-02T20:58:45.864Z,7.89
2017-10-02T21:01:13.388Z,7.81
2017-10-02T21:03:39.597Z,7.75
2017-10-02T21:06:05.825Z,7.77
2017-10-02T21:08:32.015Z,7.68
2017-10-02T21:10:58.217Z,7.65
2017-10-02T21:13:24.441Z,7.58
2017-10-02T21:15:50.627Z,7.46
2017-10-02T21:18:16.826Z,7.36
2017-10-02T21:20:43.062Z,7.38
2017-10-02T21:25:53.667Z,7.36
2017-10-02T21:28:19.944Z,7.40
2017-10-02T21:30:46.140Z,7.31
2017-10-02T21:33:12.370Z,7.55
2017-10-02T21:35:38.553Z,7.56
2017-10-02T21:38:04.750Z,7.67
2017-10-02T21:40:30.967Z,7.57
2017-10-02T21:42:57.166Z,7.45
2017-10-02T21:45:23.371Z,7.47
2017-10-02T21:47:50.551Z,7.65
2017-10-02T21:50:16.764Z,7.70
2017-10-02T21:52:42.955Z,7.53
2017-10-02T21:55:09.183Z,7.61
2017-10-02T21:57:35.368Z,7.66
2017-10-02T22:00:01.566Z,7.46
2017-10-02T22:02:27.807Z,7.35
2017-10-02T22:04:54.000Z,7.34
2017-10-02T22:07:20.183Z,7.26
2017-10-02T22:09:46.393Z,7.33
2017-10-02T22:12:12.569Z,7.16
2017-10-02T22:14:38.739Z,7.09
2017-10-02T22:17:04.958Z,6.95
2017-10-02T22:19:31.146Z,7.05
2017-10-02T22:21:57.356Z,7.30
2017-10-02T22:24:23.597Z,7.39
2017-10-02T22:26:49.790Z,7.21
2017-10-02T22:29:15.976Z,7.21
2017-10-02T22:31:42.237Z,7.18
2017-10-02T22:34:08.431Z,7.38
2017-10-02T22:36:34.624Z,7.26
2017-10-02T22:39:00.867Z,7.46
2017-10-02T22:41:27.060Z,7.56
2017-10-02T22:43:53.241Z,7.53
2017-10-02T22:46:19.477Z,7.42
2017-10-02T22:48:45.667Z,7.25
2017-10-02T22:51:11.851Z,7.07
2017-10-02T22:53:38.080Z,7.04
2017-10-02T22:56:04.259Z,6.98
2017-10-02T22:58:30.457Z,6.94
2017-10-02T23:00:56.709Z,6.93
2017-10-02T23:03:22.893Z,6.86
2017-10-02T23:05:49.078Z,6.75
2017-10-02T23:08:15.307Z,6.78
2017-10-02T23:10:41.509Z,6.91
2017-10-02T23:13:07.702Z,6.91
2017-10-02T23:15:33.940Z,6.78
2017-10-02T23:18:00.128Z,6.73
2017-10-02T23:20:26.322Z,6.59
2017-10-02T23:22:52.555Z,6.51
2017-10-02T23:25:18.742Z,6.49
2017-10-02T23:27:44.940Z,6.39
2017-10-02T23:30:11.186Z,6.37
2017-10-02T23:32:37.394Z,6.43
2017-10-02T23:35:03.594Z,6.73
2017-10-02T23:37:29.822Z,6.76
2017-10-02T23:39:56.008Z,6.53
2017-10-02T23:42:22.196Z,6.37
2017-10-02T23:44:48.414Z,6.20
2017-10-02T23:47:14.613Z,6.20
2017-10-02T23:49:40.786Z,6.35
2017-10-02T23:52:07.003Z,6.43
2017-10-02T23:54:33.219Z,6.49
2017-10-02T23:56:59.402Z,6.45
2017-10-02T23:59:25.630Z,6.36
